Time;durP1;ratioP1;P1;durP2;ratioP2;P2;SDS_P1;SDS_P2;PMS_P1;PMS_P2;Temp;Humidity;BMP_temperature;BMP_pressure;BME280_temperature;BME280_humidity;BME280_pressure;Samples;Min_cycle;Max_cycle;Signal;HPM_P1;HPM_P2
2023/06/27 00:00:52;;;;;;;2.83;1.50;;;13.60;99.90;;;;;;5045258;28;20064;-80
2023/06/27 00:03:18;;;;;;;4.05;1.70;;;13.60;99.90;;;;;;5045725;28;20087;-79
2023/06/27 00:05:43;;;;;;;6.07;1.98;;;13.50;99.90;;;;;;5045924;28;20470;-79
2023/06/27 00:08:09;;;;;;;5.15;1.42;;;13.60;99.90;;;;;;5047449;28;20045;-80
2023/06/27 00:10:35;;;;;;;4.03;1.92;;;13.50;99.90;;;;;;5048051;28;20029;-80
2023/06/27 00:13:00;;;;;;;5.97;1.90;;;13.60;99.90;;;;;;5044172;28;20037;-80
2023/06/27 00:15:29;;;;;;;5.35;1.80;;;13.50;99.90;;;;;;5046280;28;20080;-80
2023/06/27 00:17:55;;;;;;;3.88;2.33;;;13.50;99.90;;;;;;5045751;28;20091;-80
2023/06/27 00:20:21;;;;;;;4.85;1.75;;;13.50;99.90;;;;;;5046747;28;20041;-80
2023/06/27 00:22:47;;;;;;;6.30;2.00;;;13.40;99.90;;;;;;5046083;28;20457;-80
2023/06/27 00:25:12;;;;;;;5.68;1.45;;;13.40;99.90;;;;;;5044666;28;20044;-80
2023/06/27 00:27:38;;;;;;;4.65;2.10;;;13.40;99.90;;;;;;5045765;28;20142;-80
2023/06/27 00:30:05;;;;;;;4.07;2.00;;;13.40;99.90;;;;;;5045516;28;20040;-80
2023/06/27 00:32:30;;;;;;;6.10;1.88;;;13.30;99.90;;;;;;5046110;28;20427;-80
2023/06/27 00:34:56;;;;;;;4.82;2.05;;;13.30;99.90;;;;;;5046999;28;20096;-80
2023/06/27 00:37:21;;;;;;;4.55;2.20;;;13.30;99.90;;;;;;5046001;28;20048;-80
2023/06/27 00:39:47;;;;;;;5.60;2.10;;;13.20;99.90;;;;;;5044327;28;20064;-80
2023/06/27 00:42:12;;;;;;;5.43;2.33;;;13.20;99.90;;;;;;5043163;28;20135;-79
2023/06/27 00:44:38;;;;;;;11.88;2.42;;;13.20;99.90;;;;;;5042823;28;20049;-80
2023/06/27 00:47:04;;;;;;;4.05;2.15;;;13.10;99.90;;;;;;5042399;28;20047;-80
2023/06/27 00:49:29;;;;;;;3.92;2.13;;;13.10;99.90;;;;;;5041575;28;20037;-80
2023/06/27 00:51:56;;;;;;;7.53;2.65;;;13.10;99.90;;;;;;5047128;28;20045;-80
2023/06/27 00:54:23;;;;;;;6.22;2.58;;;13.20;99.90;;;;;;5046096;28;20045;-80
2023/06/27 00:56:53;;;;;;;4.38;2.35;;;13.10;99.90;;;;;;5047128;28;20487;-80
2023/06/27 00:59:19;;;;;;;4.30;2.40;;;13.10;99.90;;;;;;5045222;28;20069;-80
2023/06/27 01:01:45;;;;;;;5.65;2.45;;;13.20;99.90;;;;;;5048649;28;20040;-80
2023/06/27 01:04:11;;;;;;;7.15;2.90;;;13.20;99.90;;;;;;5042178;28;20047;-79
2023/06/27 01:06:49;;;;;;;5.38;2.42;;;13.20;99.90;;;;;;5045870;28;20037;-80
2023/06/27 01:09:35;;;;;;;5.50;2.60;;;13.10;99.90;;;;;;5041439;28;20124;-79
2023/06/27 01:12:15;;;;;;;7.43;2.53;;;13.10;99.90;;;;;;5047217;28;20514;-80
2023/06/27 01:14:45;;;;;;;5.32;2.40;;;13.10;99.90;;;;;;5044296;28;20037;-80
2023/06/27 01:17:12;;;;;;;4.53;2.70;;;13.00;99.90;;;;;;5046924;28;20037;-79
2023/06/27 01:19:38;;;;;;;5.00;2.47;;;13.00;99.90;;;;;;5062090;28;20037;-80
2023/06/27 01:22:08;;;;;;;5.63;2.80;;;13.00;99.90;;;;;;5046985;28;20523;-79
2023/06/27 01:24:36;;;;;;;6.38;2.28;;;13.00;99.90;;;;;;5046535;28;20038;-80
2023/06/27 01:27:03;;;;;;;6.68;2.20;;;12.90;99.90;;;;;;5046109;28;20558;-80
2023/06/27 01:29:29;;;;;;;7.15;2.60;;;13.10;99.90;;;;;;5045822;28;20041;-80
2023/06/27 01:32:09;;;;;;;4.80;2.03;;;13.10;99.90;;;;;;5046059;28;20033;-80
2023/06/27 01:34:45;;;;;;;3.85;2.28;;;13.20;99.90;;;;;;5027276;28;20057;-80
2023/06/27 01:37:19;;;;;;;5.53;2.45;;;13.20;99.90;;;;;;5042681;28;20526;-80
2023/06/27 01:39:50;;;;;;;6.78;1.90;;;13.20;99.90;;;;;;5039964;28;20037;-80
2023/06/27 01:42:31;;;;;;;8.65;2.60;;;13.20;99.90;;;;;;5044475;28;20040;-80
2023/06/27 01:44:57;;;;;;;6.32;2.92;;;13.20;99.90;;;;;;5042212;28;20048;-80
2023/06/27 01:47:24;;;;;;;8.98;2.72;;;13.20;99.90;;;;;;5049754;28;20107;-80
2023/06/27 01:49:50;;;;;;;4.00;2.47;;;13.20;99.90;;;;;;5066423;28;20047;-80
2023/06/27 01:52:16;;;;;;;8.07;2.83;;;13.20;99.90;;;;;;5051541;28;20124;-80
2023/06/27 01:54:43;;;;;;;5.40;2.90;;;13.20;99.90;;;;;;5047675;28;20121;-80
2023/06/27 01:57:09;;;;;;;4.28;2.70;;;13.20;99.90;;;;;;5049228;28;20040;-80
2023/06/27 01:59:35;;;;;;;5.85;2.92;;;13.20;99.90;;;;;;5046999;28;20094;-80
2023/06/27 02:02:02;;;;;;;7.47;2.90;;;13.10;99.90;;;;;;5048946;28;20045;-80
2023/06/27 02:04:27;;;;;;;7.70;3.15;;;13.20;99.90;;;;;;5057710;28;20033;-80
2023/06/27 02:06:53;;;;;;;4.60;2.90;;;13.20;99.90;;;;;;5053604;28;20455;-80
2023/06/27 02:09:18;;;;;;;5.65;2.53;;;13.20;99.90;;;;;;5051389;28;20495;-80
2023/06/27 02:11:45;;;;;;;4.25;2.83;;;13.20;99.90;;;;;;5051655;28;20037;-80
2023/06/27 02:14:11;;;;;;;7.25;2.72;;;13.20;99.90;;;;;;5050437;28;20488;-80
2023/06/27 02:16:37;;;;;;;5.97;2.35;;;13.20;99.90;;;;;;5053464;28;20057;-80
2023/06/27 02:19:02;;;;;;;5.43;2.83;;;13.20;99.90;;;;;;5050512;28;20057;-80
2023/06/27 02:21:28;;;;;;;4.22;2.75;;;13.30;99.90;;;;;;5048054;28;20450;-80
2023/06/27 02:23:54;;;;;;;4.43;2.85;;;13.20;99.90;;;;;;5051983;28;20049;-80
2023/06/27 02:26:19;;;;;;;5.28;2.45;;;13.20;99.90;;;;;;5051428;28;20048;-81
2023/06/27 02:28:45;;;;;;;4.82;2.22;;;13.20;99.90;;;;;;5050741;28;20055;-80
2023/06/27 02:31:10;;;;;;;5.47;2.60;;;13.20;99.90;;;;;;5046863;28;20037;-80
2023/06/27 02:33:36;;;;;;;7.15;2.88;;;13.20;99.90;;;;;;5048408;28;20045;-80
2023/06/27 02:36:02;;;;;;;9.00;3.53;;;13.20;99.90;;;;;;5049046;28;20045;-80
2023/06/27 02:38:27;;;;;;;6.18;2.70;;;13.20;99.90;;;;;;5048086;28;20041;-81
2023/06/27 02:40:54;;;;;;;6.65;3.13;;;13.10;99.90;;;;;;5049432;28;20037;-80
2023/06/27 02:43:19;;;;;;;3.20;2.33;;;13.10;99.90;;;;;;5049356;28;20143;-80
2023/06/27 02:45:45;;;;;;;4.60;3.03;;;13.10;99.90;;;;;;5051319;28;20102;-80
2023/06/27 02:48:10;;;;;;;8.40;3.22;;;13.10;99.90;;;;;;5036097;28;20041;-80
2023/06/27 02:50:36;;;;;;;6.55;2.78;;;13.10;99.90;;;;;;5048564;28;20045;-80
2023/06/27 02:53:02;;;;;;;4.88;3.00;;;13.00;99.90;;;;;;5052887;28;20052;-80
2023/06/27 02:55:27;;;;;;;6.22;3.20;;;13.00;99.90;;;;;;5030318;28;20102;-79
2023/06/27 02:57:53;;;;;;;4.85;3.33;;;13.00;99.90;;;;;;5052210;28;20399;-80
2023/06/27 03:00:19;;;;;;;4.65;2.80;;;13.00;99.90;;;;;;5049404;28;20048;-80
2023/06/27 03:02:45;;;;;;;6.20;3.70;;;13.10;99.90;;;;;;5052387;28;20038;-81
2023/06/27 03:05:10;;;;;;;3.90;2.97;;;13.10;99.90;;;;;;5049055;28;20048;-80
2023/06/27 03:07:36;;;;;;;4.85;2.70;;;13.10;99.90;;;;;;5047818;28;20102;-80
2023/06/27 03:10:01;;;;;;;4.18;2.92;;;13.10;99.90;;;;;;5051155;28;20032;-80
2023/06/27 03:12:27;;;;;;;7.25;2.78;;;13.20;99.90;;;;;;5048676;28;20055;-81
2023/06/27 03:14:52;;;;;;;7.95;3.20;;;13.10;99.90;;;;;;5052618;28;20048;-80
2023/06/27 03:17:18;;;;;;;6.15;2.85;;;13.20;99.90;;;;;;5047126;28;20045;-80
2023/06/27 03:19:43;;;;;;;9.63;4.10;;;13.20;99.90;;;;;;5052582;28;20091;-80
2023/06/27 03:22:09;;;;;;;7.95;3.38;;;13.20;99.90;;;;;;5051123;28;20047;-79
2023/06/27 03:24:35;;;;;;;6.18;4.45;;;13.20;99.90;;;;;;5055266;28;20728;-80
2023/06/27 03:27:00;;;;;;;4.05;3.60;;;13.30;99.90;;;;;;5048699;28;20048;-80
2023/06/27 03:29:26;;;;;;;8.82;4.22;;;13.30;99.90;;;;;;5048207;28;20147;-80
2023/06/27 03:31:51;;;;;;;8.55;4.03;;;13.30;99.90;;;;;;5031508;28;20107;-80
2023/06/27 03:34:17;;;;;;;6.53;3.90;;;13.30;99.90;;;;;;5049965;28;20041;-80
2023/06/27 03:36:42;;;;;;;4.82;4.32;;;13.30;99.90;;;;;;5051635;28;20037;-80
2023/06/27 03:39:08;;;;;;;7.95;3.90;;;13.30;99.90;;;;;;5049862;28;20128;-80
2023/06/27 03:41:34;;;;;;;7.55;4.88;;;13.40;99.90;;;;;;5050481;28;20064;-80
2023/06/27 03:44:00;;;;;;;6.15;3.30;;;13.40;99.90;;;;;;5047558;28;20575;-80
2023/06/27 03:46:26;;;;;;;7.63;3.97;;;13.40;99.90;;;;;;5050865;28;20072;-80
2023/06/27 03:48:56;;;;;;;6.35;3.90;;;13.30;99.90;;;;;;5050335;28;20123;-80
2023/06/27 03:51:22;;;;;;;6.95;3.92;;;13.50;99.90;;;;;;5042520;28;20045;-79
2023/06/27 03:53:47;;;;;;;7.80;4.20;;;13.50;99.90;;;;;;5043812;28;20048;-80
2023/06/27 03:56:13;;;;;;;5.43;3.72;;;13.60;99.90;;;;;;5039212;28;20041;-79
2023/06/27 03:58:38;;;;;;;6.00;3.72;;;13.60;99.90;;;;;;5041478;28;20041;-79
2023/06/27 04:01:04;;;;;;;7.55;4.03;;;13.60;99.90;;;;;;5041651;28;20068;-80
2023/06/27 04:03:30;;;;;;;4.82;3.50;;;13.70;99.90;;;;;;5043020;28;20060;-80
2023/06/27 04:05:55;;;;;;;6.57;3.80;;;13.70;99.90;;;;;;5043434;28;20406;-80
2023/06/27 04:08:21;;;;;;;7.90;4.25;;;13.80;99.90;;;;;;5045298;28;20037;-79
2023/06/27 04:10:46;;;;;;;5.55;4.28;;;13.90;99.90;;;;;;5041122;28;20980;-79
2023/06/27 04:13:12;;;;;;;4.35;3.83;;;14.20;99.90;;;;;;5044310;28;20043;-80
2023/06/27 04:15:39;;;;;;;6.00;4.22;;;14.30;99.90;;;;;;5042059;28;20042;-79
2023/06/27 04:18:06;;;;;;;7.15;3.75;;;14.30;99.90;;;;;;5041227;28;20047;-79
2023/06/27 04:20:31;;;;;;;6.45;3.33;;;14.50;99.90;;;;;;5046946;28;20484;-79
2023/06/27 04:22:57;;;;;;;5.30;3.53;;;14.60;99.90;;;;;;5045096;28;20052;-80
2023/06/27 04:25:22;;;;;;;8.82;4.00;;;14.80;99.90;;;;;;5045922;28;20973;-79
2023/06/27 04:27:48;;;;;;;5.78;3.42;;;15.00;99.90;;;;;;5043586;28;20036;-81
2023/06/27 04:30:14;;;;;;;4.70;3.03;;;15.30;99.90;;;;;;5045300;28;20052;-80
2023/06/27 04:32:39;;;;;;;9.05;3.55;;;15.60;99.90;;;;;;5045723;28;20033;-80
2023/06/27 04:35:06;;;;;;;4.05;2.45;;;16.40;99.90;;;;;;5046740;28;20515;-80
2023/06/27 04:37:32;;;;;;;6.45;3.15;;;17.60;99.90;;;;;;5044043;28;20037;-79
2023/06/27 04:39:57;;;;;;;3.25;2.78;;;19.00;99.90;;;;;;5043968;28;20496;-80
2023/06/27 04:42:23;;;;;;;5.07;2.80;;;20.10;99.90;;;;;;5039577;28;20465;-80
2023/06/27 04:44:49;;;;;;;5.30;2.78;;;21.00;99.90;;;;;;5038885;28;20465;-80
2023/06/27 04:47:14;;;;;;;4.78;2.63;;;21.90;99.90;;;;;;5039623;28;20562;-79
2023/06/27 04:49:40;;;;;;;9.55;2.90;;;22.60;99.90;;;;;;5041581;28;20033;-80
2023/06/27 04:52:06;;;;;;;5.20;2.03;;;23.20;99.90;;;;;;5041102;28;20033;-81
2023/06/27 04:54:31;;;;;;;9.32;3.08;;;23.80;99.90;;;;;;5041546;28;20106;-80
2023/06/27 04:56:57;;;;;;;5.70;2.38;;;24.30;99.90;;;;;;5040331;28;20059;-80
2023/06/27 04:59:22;;;;;;;6.78;2.75;;;24.80;99.90;;;;;;5040470;28;20080;-80
2023/06/27 05:01:48;;;;;;;6.82;2.80;;;25.20;99.90;;;;;;5040620;28;20033;-80
2023/06/27 05:04:13;;;;;;;4.22;2.33;;;25.00;99.90;;;;;;5021544;28;20106;-82
2023/06/27 05:06:39;;;;;;;9.10;3.13;;;25.10;99.70;;;;;;5038679;28;20063;-81
2023/06/27 05:09:05;;;;;;;34.53;4.40;;;25.60;99.50;;;;;;5038847;28;20041;-81
2023/06/27 05:11:30;;;;;;;6.07;2.50;;;25.90;99.00;;;;;;5037169;28;20041;-80
2023/06/27 05:13:56;;;;;;;10.43;3.50;;;26.00;98.50;;;;;;5039373;28;20124;-81
2023/06/27 05:16:23;;;;;;;11.73;2.88;;;25.10;98.30;;;;;;5040203;28;20195;-82
2023/06/27 05:18:48;;;;;;;9.95;3.03;;;24.00;98.90;;;;;;5040360;28;20041;-80
2023/06/27 05:21:14;;;;;;;5.55;2.60;;;23.90;99.70;;;;;;5043523;28;20037;-82
2023/06/27 05:23:39;;;;;;;7.10;2.60;;;24.60;99.80;;;;;;5041743;28;20448;-82
2023/06/27 05:26:05;;;;;;;19.63;3.65;;;25.00;99.10;;;;;;5035808;28;20056;-82
2023/06/27 05:28:31;;;;;;;9.73;2.53;;;25.10;99.00;;;;;;5041014;28;20083;-81
2023/06/27 05:30:57;;;;;;;6.15;2.30;;;24.70;99.20;;;;;;5041065;28;20052;-81
2023/06/27 05:33:22;;;;;;;8.95;2.33;;;24.30;99.70;;;;;;5044493;28;20041;-81
2023/06/27 05:35:48;;;;;;;13.57;2.92;;;24.00;99.90;;;;;;5041762;28;20099;-80
2023/06/27 05:38:14;;;;;;;5.88;2.38;;;23.90;99.90;;;;;;5044560;28;20087;-79
2023/06/27 05:40:40;;;;;;;9.00;2.47;;;23.70;99.90;;;;;;5050443;28;20042;-81
2023/06/27 05:43:05;;;;;;;109.30;7.80;;;23.80;99.90;;;;;;5046163;28;20047;-84
2023/06/27 05:45:31;;;;;;;11.73;2.80;;;23.60;99.90;;;;;;5039813;28;20065;-80
2023/06/27 05:47:56;;;;;;;9.98;1.55;;;23.60;99.90;;;;;;5041794;28;20041;-80
2023/06/27 05:50:42;;;;;;;7.15;0.93;;;23.60;99.90;;;;;;5039270;28;20057;-80
2023/06/27 05:53:08;;;;;;;5.65;1.00;;;23.70;99.90;;;;;;5043064;28;20037;-79
2023/06/27 05:55:33;;;;;;;2.95;0.75;;;23.70;99.90;;;;;;5043570;28;20128;-81
2023/06/27 05:57:59;;;;;;;5.05;1.20;;;23.90;99.90;;;;;;5040883;28;20128;-81
2023/06/27 06:00:25;;;;;;;3.13;0.90;;;24.10;99.90;;;;;;5040193;28;20052;-81
2023/06/27 06:02:50;;;;;;;5.15;0.90;;;24.20;99.90;;;;;;5043529;28;20045;-83
2023/06/27 06:05:17;;;;;;;7.13;0.98;;;24.30;99.70;;;;;;5041372;28;20045;-82
2023/06/27 06:07:47;;;;;;;7.57;1.10;;;24.40;99.60;;;;;;5049330;28;20171;-81
2023/06/27 06:10:12;;;;;;;4.57;1.98;;;24.50;99.10;;;;;;5045339;28;20403;-80
2023/06/27 06:12:39;;;;;;;4.80;0.88;;;24.40;98.80;;;;;;5046591;28;20156;-82
2023/06/27 06:15:05;;;;;;;3.38;1.00;;;24.50;99.00;;;;;;5046083;28;20041;-80
2023/06/27 06:17:31;;;;;;;5.32;1.05;;;24.50;98.90;;;;;;5045398;28;20520;-82
2023/06/27 06:19:56;;;;;;;3.55;0.80;;;24.50;98.90;;;;;;5049073;28;20128;-81
2023/06/27 06:22:22;;;;;;;2.55;0.63;;;24.50;99.00;;;;;;5045897;28;20076;-80
2023/06/27 06:24:48;;;;;;;3.15;1.00;;;24.60;98.80;;;;;;5038812;28;20073;-81
2023/06/27 06:27:13;;;;;;;4.85;1.55;;;24.70;98.20;;;;;;5043071;28;20097;-79
2023/06/27 06:29:39;;;;;;;5.03;0.82;;;24.90;98.00;;;;;;5048165;28;20032;-80
2023/06/27 06:32:05;;;;;;;2.47;0.82;;;24.70;97.00;;;;;;5051865;28;20037;-83
2023/06/27 06:34:31;;;;;;;3.78;0.70;;;24.90;97.50;;;;;;5051551;28;20816;-80
2023/06/27 06:36:56;;;;;;;6.75;1.25;;;25.00;97.70;;;;;;5051732;28;20042;-79
2023/06/27 06:39:22;;;;;;;6.25;1.48;;;25.10;97.30;;;;;;5052486;28;20452;-80
2023/06/27 06:41:47;;;;;;;6.35;0.85;;;25.30;96.90;;;;;;5049276;28;20499;-80
2023/06/27 06:45:09;;;;;;;7.03;1.23;;;25.20;96.70;;;;;;5053711;28;20080;-81
2023/06/27 06:47:47;;;;;;;3.72;0.68;;;25.70;97.20;;;;;;5053504;28;20041;-82
2023/06/27 06:50:14;;;;;;;3.15;0.80;;;25.50;96.20;;;;;;5051233;28;20086;-79
2023/06/27 06:52:40;;;;;;;2.10;0.80;;;25.50;95.50;;;;;;5046838;28;20029;-80
2023/06/27 06:55:06;;;;;;;4.65;0.75;;;25.60;94.80;;;;;;5051703;28;20075;-80
2023/06/27 06:57:32;;;;;;;3.25;0.98;;;25.80;95.10;;;;;;5051710;28;20079;-83
2023/06/27 06:59:57;;;;;;;4.30;0.98;;;25.90;95.10;;;;;;5051211;28;20510;-80
2023/06/27 07:02:23;;;;;;;2.40;0.47;;;25.90;94.70;;;;;;5055154;28;20099;-80
2023/06/27 07:04:48;;;;;;;6.57;0.90;;;25.70;93.50;;;;;;5051180;28;20045;-80
2023/06/27 07:07:14;;;;;;;5.75;0.93;;;25.50;93.60;;;;;;5039600;28;20045;-81
2023/06/27 07:09:39;;;;;;;2.30;0.77;;;25.30;93.50;;;;;;5043355;28;20036;-79
2023/06/27 07:12:05;;;;;;;3.58;0.68;;;25.10;93.30;;;;;;5043254;28;20041;-80
2023/06/27 07:14:31;;;;;;;2.20;0.50;;;24.90;92.90;;;;;;5046148;28;20037;-80
2023/06/27 07:16:56;;;;;;;3.33;0.70;;;24.70;93.30;;;;;;5046505;28;20047;-80
2023/06/27 07:19:22;;;;;;;4.57;1.05;;;24.70;93.60;;;;;;5048498;28;20052;-79
2023/06/27 07:21:47;;;;;;;3.28;0.90;;;24.60;93.00;;;;;;5043763;28;20042;-79
2023/06/27 07:24:13;;;;;;;6.82;0.80;;;24.50;92.50;;;;;;5045502;28;20041;-79
2023/06/27 07:26:38;;;;;;;2.60;0.50;;;24.70;92.60;;;;;;5046849;28;20084;-80
2023/06/27 07:29:04;;;;;;;5.32;0.70;;;24.60;92.50;;;;;;5051434;28;20633;-79
2023/06/27 07:32:13;;;;;;;7.70;0.88;;;24.80;92.40;;;;;;5049720;28;20071;-79
2023/06/27 07:38:17;;;;;;;3.38;0.90;;;25.00;92.20;;;;;;4996725;28;20052;-81
2023/06/27 07:40:44;;;;;;;7.68;0.93;;;25.30;92.90;;;;;;5014532;28;20041;-80
2023/06/27 07:43:09;;;;;;;2.45;0.73;;;25.10;92.60;;;;;;5015558;28;20045;-80
2023/06/27 07:45:35;;;;;;;5.18;0.77;;;24.90;92.00;;;;;;5018651;28;20378;-78
2023/06/27 07:48:00;;;;;;;2.72;0.70;;;24.60;92.10;;;;;;5012377;28;20055;-80
2023/06/27 07:50:26;;;;;;;3.45;0.75;;;24.50;92.40;;;;;;5021560;28;20033;-82
2023/06/27 07:52:51;;;;;;;4.38;0.75;;;24.10;91.90;;;;;;5015141;28;20038;-79
2023/06/27 07:55:17;;;;;;;2.83;0.80;;;23.90;92.60;;;;;;5018634;28;20496;-80
2023/06/27 07:57:42;;;;;;;3.85;0.73;;;23.60;91.80;;;;;;5016203;28;20037;-79
2023/06/27 08:00:08;;;;;;;1.75;0.40;;;23.40;92.40;;;;;;5017302;28;20069;-79
2023/06/27 08:02:34;;;;;;;6.18;0.70;;;23.30;92.60;;;;;;5007863;28;20056;-81
2023/06/27 08:05:00;;;;;;;4.05;0.60;;;23.10;92.70;;;;;;5003154;28;20045;-78
2023/06/27 08:07:26;;;;;;;7.78;0.73;;;23.00;93.10;;;;;;5004887;28;20056;-79
2023/06/27 08:09:51;;;;;;;1.63;0.40;;;22.80;92.30;;;;;;5005492;28;20034;-78
2023/06/27 08:12:17;;;;;;;2.78;0.45;;;22.70;92.10;;;;;;5004145;28;20382;-78
2023/06/27 08:14:45;;;;;;;2.50;0.50;;;22.60;91.70;;;;;;5008682;28;20053;-78
2023/06/27 08:17:10;;;;;;;5.70;1.27;;;22.70;91.70;;;;;;5005289;28;20132;-79
2023/06/27 08:19:36;;;;;;;4.32;0.73;;;22.70;91.60;;;;;;5007146;28;21577;-80
2023/06/27 08:22:02;;;;;;;3.25;0.60;;;22.80;91.90;;;;;;5001619;28;20041;-82
2023/06/27 08:24:27;;;;;;;3.05;0.77;;;23.00;91.80;;;;;;5006648;28;20045;-79
2023/06/27 08:26:55;;;;;;;3.70;0.60;;;23.10;91.70;;;;;;5008328;28;20435;-78
2023/06/27 08:29:21;;;;;;;0.90;0.30;;;23.40;91.30;;;;;;5016609;28;20037;-79
2023/06/27 08:31:48;;;;;;;3.60;0.63;;;23.60;91.10;;;;;;5008274;28;20048;-82
2023/06/27 08:34:13;;;;;;;5.50;0.70;;;23.90;91.40;;;;;;5008796;28;20065;-79
2023/06/27 08:36:39;;;;;;;2.72;0.60;;;24.20;91.00;;;;;;5009532;28;20092;-80
2023/06/27 08:39:05;;;;;;;5.25;0.70;;;24.50;90.90;;;;;;5013382;28;20057;-79
2023/06/27 08:41:30;;;;;;;2.45;0.43;;;24.60;90.10;;;;;;5015004;28;20042;-81
2023/06/27 08:43:56;;;;;;;4.45;0.52;;;24.70;90.70;;;;;;5014493;28;20084;-80
2023/06/27 08:46:23;;;;;;;3.50;0.90;;;24.90;90.80;;;;;;5014995;28;20046;-80
2023/06/27 08:48:52;;;;;;;5.68;1.02;;;25.00;90.60;;;;;;5017785;28;20041;-80
2023/06/27 08:51:21;;;;;;;1.73;0.43;;;25.20;91.20;;;;;;5015123;28;21005;-81
2023/06/27 08:53:49;;;;;;;4.53;0.57;;;25.20;90.20;;;;;;5011718;28;21969;-81
2023/06/27 08:56:17;;;;;;;5.65;0.93;;;25.30;90.20;;;;;;5007989;28;20046;-84
2023/06/27 08:58:46;;;;;;;9.07;1.30;;;25.30;90.10;;;;;;5010093;28;20496;-82
2023/06/27 09:01:12;;;;;;;3.58;0.82;;;25.30;89.20;;;;;;5010934;28;20101;-79
2023/06/27 09:03:38;;;;;;;9.10;0.88;;;25.30;89.90;;;;;;5006919;28;20061;-78
2023/06/27 09:06:05;;;;;;;8.02;1.00;;;25.10;90.50;;;;;;5008638;28;20901;-80
2023/06/27 09:08:34;;;;;;;6.35;0.55;;;24.90;89.70;;;;;;5011016;28;20070;-79
2023/06/27 09:11:01;;;;;;;5.03;0.68;;;24.80;88.70;;;;;;5005955;28;20064;-81
2023/06/27 09:13:27;;;;;;;4.85;0.85;;;24.60;90.00;;;;;;5007119;28;20042;-80
2023/06/27 09:15:53;;;;;;;5.45;0.80;;;24.40;90.10;;;;;;5013834;28;20051;-79
2023/06/27 09:18:19;;;;;;;4.40;0.65;;;24.40;90.20;;;;;;5020797;28;20046;-81
2023/06/27 09:20:45;;;;;;;1.95;0.45;;;24.30;90.50;;;;;;5019075;28;20034;-83
2023/06/27 09:23:11;;;;;;;1.90;0.50;;;24.20;90.10;;;;;;5016488;28;20045;-81
2023/06/27 09:25:37;;;;;;;3.72;1.05;;;24.20;90.50;;;;;;5011841;28;20048;-80
2023/06/27 09:28:16;;;;;;;4.40;0.75;;;24.20;90.40;;;;;;5009713;28;20502;-80
2023/06/27 09:30:55;;;;;;;1.95;0.82;;;24.10;88.90;;;;;;4990128;28;20042;-81
2023/06/27 09:33:21;;;;;;;4.05;0.82;;;24.10;90.70;;;;;;5021187;28;20038;-80
2023/06/27 09:35:47;;;;;;;8.70;1.02;;;24.10;90.80;;;;;;5009363;28;20042;-80
2023/06/27 09:38:12;;;;;;;1.60;0.40;;;24.10;90.70;;;;;;5003174;28;20038;-81
2023/06/27 09:40:38;;;;;;;11.27;0.75;;;24.20;91.10;;;;;;5006888;28;20192;-81
2023/06/27 09:43:08;;;;;;;5.13;0.98;;;24.10;90.50;;;;;;5016579;28;20049;-81
2023/06/27 09:45:34;;;;;;;2.70;0.73;;;24.20;90.60;;;;;;4991413;28;20132;-82
2023/06/27 09:47:59;;;;;;;4.47;0.60;;;24.30;90.90;;;;;;5023851;28;20041;-81
2023/06/27 09:50:27;;;;;;;3.63;0.73;;;24.30;90.60;;;;;;5016453;28;20133;-80
2023/06/27 09:52:55;;;;;;;3.05;0.60;;;24.20;90.30;;;;;;5019145;28;20046;-81
2023/06/27 09:55:21;;;;;;;5.82;1.00;;;24.30;90.60;;;;;;5031009;28;20110;-81
2023/06/27 09:57:47;;;;;;;6.10;0.70;;;24.30;90.80;;;;;;5023675;28;20068;-79
2023/06/27 10:00:14;;;;;;;6.63;1.10;;;24.40;91.10;;;;;;5021337;28;20054;-80
2023/06/27 10:02:40;;;;;;;9.40;1.05;;;24.30;91.60;;;;;;5026266;28;20049;-83
2023/06/27 10:05:06;;;;;;;7.32;0.80;;;24.20;91.80;;;;;;5019626;28;20548;-83
2023/06/27 10:07:32;;;;;;;2.92;0.77;;;24.20;91.80;;;;;;5020962;28;20069;-82
2023/06/27 10:09:57;;;;;;;20.20;1.50;;;24.10;91.90;;;;;;5024233;28;20480;-80
2023/06/27 10:12:24;;;;;;;5.55;0.90;;;24.20;92.00;;;;;;5027363;28;20147;-80
2023/06/27 10:14:50;;;;;;;6.53;0.63;;;24.20;90.90;;;;;;5027411;28;20125;-81
2023/06/27 10:17:18;;;;;;;4.10;0.70;;;24.10;90.90;;;;;;5026842;28;20080;-82
2023/06/27 10:19:44;;;;;;;3.05;0.70;;;24.30;91.40;;;;;;5027108;28;20041;-81
2023/06/27 10:22:14;;;;;;;2.83;0.38;;;24.10;91.00;;;;;;5018464;28;20476;-81
2023/06/27 10:24:42;;;;;;;7.18;0.68;;;24.00;90.80;;;;;;5019126;28;20046;-80
2023/06/27 10:27:09;;;;;;;4.45;0.55;;;24.20;91.20;;;;;;5026540;28;20565;-82
2023/06/27 10:29:40;;;;;;;2.03;0.68;;;24.30;91.20;;;;;;5021354;28;20038;-81
2023/06/27 10:32:08;;;;;;;4.68;0.65;;;24.50;91.20;;;;;;5022210;28;20030;-81
2023/06/27 10:34:42;;;;;;;6.57;1.10;;;24.50;90.90;;;;;;5017015;28;20042;-81
2023/06/27 10:37:26;;;;;;;2.65;0.68;;;24.30;90.50;;;;;;5026252;28;20044;-80
2023/06/27 10:40:01;;;;;;;6.43;1.00;;;24.20;90.50;;;;;;5020015;28;20034;-79
2023/06/27 10:42:29;;;;;;;6.72;0.60;;;24.10;91.00;;;;;;5022909;28;20138;-82
2023/06/27 10:45:03;;;;;;;3.35;0.77;;;24.20;91.10;;;;;;5027531;28;20052;-82
2023/06/27 10:48:07;;;;;;;5.93;1.20;;;24.30;91.40;;;;;;5031881;28;20056;-81
2023/06/27 10:51:02;;;;;;;2.67;0.65;;;24.50;91.80;;;;;;5015121;28;20113;-81
2023/06/27 10:54:09;;;;;;;6.35;0.90;;;24.50;90.00;;;;;;5026001;28;20052;-81
2023/06/27 10:56:59;;;;;;;5.10;0.70;;;24.30;91.20;;;;;;5022506;28;20041;-81
2023/06/27 10:59:24;;;;;;;4.00;0.90;;;24.20;90.80;;;;;;5028054;28;20042;-81
2023/06/27 11:02:13;;;;;;;3.45;0.50;;;24.20;91.10;;;;;;5025773;28;20097;-81
2023/06/27 11:05:36;;;;;;;4.70;0.57;;;24.00;91.30;;;;;;5028257;28;20076;-83
2023/06/27 11:08:02;;;;;;;3.95;1.05;;;24.10;91.20;;;;;;5027300;28;20066;-82
2023/06/27 11:10:50;;;;;;;4.15;0.73;;;24.30;91.00;;;;;;5020773;28;20042;-84
2023/06/27 11:13:22;;;;;;;5.75;0.60;;;24.50;91.80;;;;;;5023791;28;20080;-82
2023/06/27 11:15:51;;;;;;;9.35;0.73;;;24.50;90.60;;;;;;5023134;28;20080;-80
2023/06/27 11:18:19;;;;;;;3.38;0.80;;;24.30;90.10;;;;;;4998350;28;20574;-81
2023/06/27 11:20:46;;;;;;;6.20;1.08;;;24.10;90.30;;;;;;5024135;28;20037;-82
2023/06/27 11:23:12;;;;;;;6.35;0.70;;;24.10;91.10;;;;;;5028173;28;20060;-81
2023/06/27 11:25:42;;;;;;;2.92;0.73;;;24.10;91.50;;;;;;5011166;28;20053;-81
2023/06/27 11:28:09;;;;;;;6.47;1.30;;;24.00;91.60;;;;;;5024079;28;20038;-80
2023/06/27 11:30:39;;;;;;;2.72;0.52;;;23.90;91.40;;;;;;5024476;28;20037;-81
2023/06/27 11:33:06;;;;;;;4.07;0.90;;;23.90;91.60;;;;;;5029291;28;20099;-81
2023/06/27 11:35:50;;;;;;;2.65;0.60;;;23.80;92.20;;;;;;5023566;28;20488;-81
2023/06/27 11:38:35;;;;;;;5.22;1.10;;;24.00;92.60;;;;;;5026718;28;20057;-81
2023/06/27 11:41:01;;;;;;;5.38;0.55;;;24.10;92.60;;;;;;5021226;28;20507;-80
2023/06/27 11:43:27;;;;;;;5.95;0.95;;;24.00;92.00;;;;;;5016843;28;20041;-81
2023/06/27 11:45:58;;;;;;;2.35;0.65;;;23.80;91.80;;;;;;5022298;28;20077;-80
2023/06/27 11:48:25;;;;;;;3.22;0.70;;;23.70;92.00;;;;;;5020177;28;20057;-81
2023/06/27 11:51:10;;;;;;;2.65;0.60;;;23.60;91.80;;;;;;5001712;28;20076;-81
2023/06/27 11:53:54;;;;;;;4.70;0.75;;;23.60;91.80;;;;;;5018762;28;20046;-79
2023/06/27 11:56:25;;;;;;;3.63;0.68;;;23.70;92.40;;;;;;5018444;28;20033;-79
2023/06/27 11:58:56;;;;;;;5.18;0.80;;;23.80;92.20;;;;;;5022677;28;20041;-81
2023/06/27 12:01:24;;;;;;;6.35;1.30;;;24.00;92.40;;;;;;5019245;28;20042;-81
2023/06/27 12:03:53;;;;;;;7.57;1.00;;;24.10;92.80;;;;;;5024081;28;20042;-81
2023/06/27 12:06:34;;;;;;;5.80;0.85;;;24.10;92.50;;;;;;5027632;28;20104;-82
2023/06/27 12:08:59;;;;;;;4.13;0.68;;;24.30;91.30;;;;;;5024351;28;20125;-83
2023/06/27 12:11:32;;;;;;;5.75;0.98;;;24.10;91.70;;;;;;5003853;28;20080;-82
2023/06/27 12:13:58;;;;;;;14.93;0.85;;;24.10;91.20;;;;;;5020371;28;20038;-82
2023/06/27 12:16:49;;;;;;;8.15;1.05;;;24.00;90.60;;;;;;5016644;28;20045;-84
2023/06/27 12:19:39;;;;;;;4.05;1.05;;;23.70;90.30;;;;;;5024211;28;20058;-83
2023/06/27 12:22:21;;;;;;;11.40;0.95;;;23.70;90.80;;;;;;5020277;28;20053;-83
2023/06/27 12:24:54;;;;;;;8.30;1.00;;;23.70;90.00;;;;;;5015627;28;20381;-83
2023/06/27 12:27:43;;;;;;;2.67;0.50;;;23.60;88.60;;;;;;5015712;28;20444;-83
2023/06/27 12:30:31;;;;;;;9.63;0.88;;;23.80;90.00;;;;;;5016290;28;20041;-83
2023/06/27 12:33:36;;;;;;;3.88;0.50;;;24.00;90.20;;;;;;5021362;28;20113;-83
2023/06/27 12:36:19;;;;;;;5.88;0.77;;;23.80;90.00;;;;;;5000602;28;20061;-83
2023/06/27 12:39:17;;;;;;;2.00;0.40;;;23.70;90.30;;;;;;5023170;28;20092;-83
2023/06/27 12:43:11;;;;;;;3.70;0.63;;;23.80;87.40;;;;;;5011952;28;20033;-83
2023/06/27 12:46:06;;;;;;;4.15;0.93;;;23.60;87.80;;;;;;5012763;28;21521;-82
2023/06/27 12:52:13;;;;;;;6.65;0.60;;;23.60;88.30;;;;;;5006365;28;20088;-82
2023/06/27 12:54:38;;;;;;;4.57;0.68;;;23.70;88.70;;;;;;5020387;28;20049;-83
2023/06/27 12:57:04;;;;;;;5.68;0.98;;;23.70;89.10;;;;;;5018604;28;20053;-83
2023/06/27 12:59:30;;;;;;;3.60;1.25;;;23.80;89.40;;;;;;5021794;28;20057;-83
2023/06/27 13:01:56;;;;;;;3.30;0.75;;;23.70;90.10;;;;;;5017505;28;20381;-84